createdAt,value
2024-01-07T00:02:09.054Z,5.90
2024-01-07T00:04:35.663Z,5.75
2024-01-07T00:07:02.354Z,5.88
2024-01-07T00:09:28.900Z,5.53
2024-01-07T00:11:55.393Z,5.65
2024-01-07T00:14:21.851Z,5.80
2024-01-07T00:16:48.351Z,6.03
2024-01-07T00:19:15.069Z,5.43
2024-01-07T00:21:41.589Z,4.97
2024-01-07T00:24:08.068Z,4.70
2024-01-07T00:26:34.506Z,5.10
2024-01-07T00:29:00.909Z,5.28
2024-01-07T00:31:27.511Z,5.28
2024-01-07T00:33:54.489Z,4.80
2024-01-07T00:36:20.988Z,4.90
2024-01-07T00:38:47.495Z,4.47
2024-01-07T00:41:14.015Z,4.75
2024-01-07T00:43:41.761Z,4.32
2024-01-07T00:46:08.337Z,4.40
2024-01-07T00:48:34.904Z,4.70
2024-01-07T00:51:01.484Z,4.38
2024-01-07T00:53:30.396Z,4.38
2024-01-07T00:55:56.895Z,4.93
2024-01-07T00:58:23.328Z,4.63
2024-01-07T01:00:50.238Z,4.65
2024-01-07T01:03:16.891Z,4.63
2024-01-07T01:05:43.459Z,4.95
2024-01-07T01:08:09.930Z,5.50
2024-01-07T01:10:36.452Z,5.10
2024-01-07T01:13:02.998Z,5.70
2024-01-07T01:15:29.477Z,5.45
2024-01-07T01:17:56.168Z,4.90
2024-01-07T01:20:22.708Z,5.25
2024-01-07T01:22:49.426Z,5.10
2024-01-07T01:25:16.028Z,4.97
2024-01-07T01:27:42.893Z,5.15
2024-01-07T01:30:09.916Z,5.97
2024-01-07T01:32:36.446Z,5.50
2024-01-07T01:35:03.179Z,5.80
2024-01-07T01:37:29.972Z,5.57
2024-01-07T01:39:56.508Z,5.97
2024-01-07T01:42:23.039Z,4.78
2024-01-07T01:44:49.519Z,5.90
2024-01-07T01:47:16.759Z,5.30
2024-01-07T01:49:43.428Z,6.00
2024-01-07T01:52:11.041Z,5.47
2024-01-07T01:54:37.869Z,5.03
2024-01-07T01:57:05.794Z,5.40
2024-01-07T01:59:34.734Z,5.10
2024-01-07T02:02:02.488Z,5.90
2024-01-07T02:04:29.315Z,6.32
2024-01-07T02:06:55.918Z,5.55
2024-01-07T02:09:22.543Z,6.05
2024-01-07T02:12:05.597Z,5.40
2024-01-07T02:14:32.294Z,5.90
2024-01-07T02:16:58.958Z,6.50
2024-01-07T02:19:25.500Z,6.05
2024-01-07T02:21:52.678Z,6.55
2024-01-07T02:24:19.469Z,5.70
2024-01-07T02:26:45.951Z,5.97
2024-01-07T02:29:12.381Z,6.30
2024-01-07T02:31:38.901Z,6.82
2024-01-07T02:34:05.521Z,6.93
2024-01-07T02:36:32.089Z,6.57
2024-01-07T02:38:58.528Z,6.57
2024-01-07T02:41:26.747Z,6.75
2024-01-07T02:43:53.440Z,6.50
2024-01-07T02:46:21.632Z,6.80
2024-01-07T02:48:48.165Z,6.20
2024-01-07T02:51:14.722Z,6.40
2024-01-07T02:53:41.205Z,7.05
2024-01-07T02:56:09.789Z,6.40
2024-01-07T02:58:36.554Z,7.00
2024-01-07T03:01:03.248Z,6.37
2024-01-07T03:03:29.817Z,5.63
2024-01-07T03:05:56.429Z,6.30
2024-01-07T03:08:23.103Z,6.15
2024-01-07T03:10:49.605Z,5.97
2024-01-07T03:13:16.095Z,6.40
2024-01-07T03:15:42.661Z,5.88
2024-01-07T03:18:09.303Z,6.70
2024-01-07T03:20:35.912Z,6.07
2024-01-07T03:23:02.782Z,6.25
2024-01-07T03:25:29.280Z,6.17
2024-01-07T03:27:55.774Z,6.22
2024-01-07T03:30:22.368Z,6.32
2024-01-07T03:32:48.925Z,5.80
2024-01-07T03:35:15.639Z,6.60
2024-01-07T03:37:42.048Z,5.90
2024-01-07T03:40:13.081Z,6.47
2024-01-07T03:42:39.662Z,5.43
2024-01-07T03:45:06.384Z,6.05
2024-01-07T03:47:33.349Z,6.00
2024-01-07T03:49:59.978Z,6.90
2024-01-07T03:52:26.430Z,6.45
2024-01-07T03:54:52.927Z,6.32
2024-01-07T03:57:19.395Z,6.53
2024-01-07T03:59:45.839Z,6.18
2024-01-07T04:02:13.091Z,6.57
2024-01-07T04:04:39.726Z,6.57
2024-01-07T04:07:06.397Z,7.05
2024-01-07T04:09:33.005Z,6.50
2024-01-07T04:11:59.535Z,7.03
2024-01-07T04:14:28.483Z,5.87
2024-01-07T04:16:54.889Z,6.40
2024-01-07T04:19:21.363Z,7.05
2024-01-07T04:21:48.002Z,6.97
2024-01-07T04:24:15.104Z,5.88
2024-01-07T04:26:41.592Z,6.73
2024-01-07T04:29:08.061Z,5.93
2024-01-07T04:31:34.575Z,6.60
2024-01-07T04:34:01.146Z,7.05
2024-01-07T04:36:27.686Z,6.35
2024-01-07T04:38:54.203Z,7.20
2024-01-07T04:41:20.644Z,7.35
2024-01-07T04:43:47.062Z,6.70
2024-01-07T04:46:13.686Z,7.00
2024-01-07T04:48:40.693Z,6.70
2024-01-07T04:51:09.001Z,6.53
2024-01-07T04:53:35.497Z,6.68
2024-01-07T04:56:02.192Z,6.63
2024-01-07T04:58:28.684Z,5.57
2024-01-07T05:00:55.318Z,6.30
2024-01-07T05:03:21.881Z,5.80
2024-01-07T05:05:48.392Z,5.95
2024-01-07T05:08:14.862Z,6.00
2024-01-07T05:10:41.328Z,6.90
2024-01-07T05:13:08.044Z,6.10
2024-01-07T05:15:34.633Z,5.77
2024-01-07T05:18:01.629Z,5.47
2024-01-07T05:20:28.091Z,5.72
2024-01-07T05:22:54.661Z,5.80
2024-01-07T05:25:21.302Z,5.75
2024-01-07T05:27:47.812Z,5.40
2024-01-07T05:30:14.582Z,5.53
2024-01-07T05:32:41.179Z,5.70
2024-01-07T05:35:08.050Z,5.18
2024-01-07T05:37:34.480Z,4.88
2024-01-07T05:40:01.011Z,5.20
2024-01-07T05:42:27.598Z,5.38
2024-01-07T05:44:54.091Z,5.68
2024-01-07T05:47:20.659Z,5.28
2024-01-07T05:49:47.285Z,5.40
2024-01-07T05:52:13.809Z,5.20
2024-01-07T05:54:41.325Z,5.30
2024-01-07T05:57:07.824Z,5.28
2024-01-07T05:59:34.352Z,4.82
2024-01-07T06:02:01.153Z,4.75
2024-01-07T06:04:27.960Z,4.57
2024-01-07T06:06:55.222Z,4.95
2024-01-07T06:09:21.982Z,5.25
2024-01-07T06:11:48.447Z,5.15
2024-01-07T06:14:15.037Z,5.40
2024-01-07T06:16:41.512Z,4.73
2024-01-07T06:19:08.141Z,5.03
2024-01-07T06:21:34.752Z,5.18
2024-01-07T06:24:01.229Z,5.90
2024-01-07T06:26:28.159Z,4.75
2024-01-07T06:28:54.616Z,5.23
2024-01-07T06:31:21.309Z,4.45
2024-01-07T06:33:48.094Z,4.75
2024-01-07T06:36:15.499Z,4.47
2024-01-07T06:38:41.893Z,4.57
2024-01-07T06:41:08.479Z,5.33
2024-01-07T06:43:34.999Z,5.13
2024-01-07T06:46:01.530Z,5.85
2024-01-07T06:48:28.296Z,4.90
2024-01-07T06:50:54.903Z,4.53
2024-01-07T06:53:22.279Z,4.83
2024-01-07T06:55:48.753Z,5.22
2024-01-07T06:58:15.208Z,4.78
2024-01-07T07:00:41.718Z,4.78
2024-01-07T07:03:09.116Z,5.15
2024-01-07T07:05:35.800Z,4.37
2024-01-07T07:08:03.605Z,5.05
2024-01-07T07:10:30.019Z,5.10
2024-01-07T07:12:56.543Z,5.13
2024-01-07T07:15:23.113Z,5.28
2024-01-07T07:17:49.597Z,5.03
2024-01-07T07:20:16.265Z,4.90
2024-01-07T07:22:42.885Z,4.78
2024-01-07T07:25:09.553Z,5.25
2024-01-07T07:27:36.124Z,5.03
2024-01-07T07:30:02.622Z,5.40
2024-01-07T07:32:29.108Z,5.10
2024-01-07T07:34:55.770Z,5.65
2024-01-07T07:37:22.374Z,5.65
2024-01-07T07:39:50.139Z,4.65
2024-01-07T07:42:17.208Z,5.03
2024-01-07T07:44:43.681Z,4.90
2024-01-07T07:47:12.679Z,4.88
2024-01-07T07:49:41.390Z,4.65
2024-01-07T07:52:09.982Z,4.93
2024-01-07T07:54:38.985Z,4.87
2024-01-07T07:57:05.487Z,4.72
2024-01-07T07:59:32.262Z,5.10
2024-01-07T08:01:58.988Z,5.00
2024-01-07T08:04:25.544Z,4.75
2024-01-07T08:06:51.987Z,3.73
2024-01-07T08:09:18.455Z,4.20
2024-01-07T08:11:44.951Z,4.65
2024-01-07T08:14:11.515Z,5.00
2024-01-07T08:16:37.904Z,4.40
2024-01-07T08:19:04.521Z,3.87
2024-01-07T08:21:31.013Z,4.45
2024-01-07T08:23:57.552Z,4.63
2024-01-07T08:26:24.211Z,4.05
2024-01-07T08:28:50.673Z,4.57
2024-01-07T08:31:17.245Z,4.43
2024-01-07T08:33:43.858Z,5.03
2024-01-07T08:36:10.470Z,4.97
2024-01-07T08:38:36.943Z,4.40
2024-01-07T08:41:03.598Z,4.75
2024-01-07T08:43:30.095Z,4.57
2024-01-07T08:45:56.677Z,4.50
2024-01-07T08:48:23.261Z,4.40
2024-01-07T08:50:51.163Z,4.35
2024-01-07T08:53:17.666Z,4.68
2024-01-07T08:55:44.186Z,4.43
2024-01-07T08:58:10.829Z,3.65
2024-01-07T09:00:37.427Z,3.88
2024-01-07T09:03:04.080Z,4.05
2024-01-07T09:05:30.634Z,3.88
2024-01-07T09:07:57.278Z,3.43
2024-01-07T09:10:25.808Z,4.15
2024-01-07T09:12:54.089Z,3.88
2024-01-07T09:15:21.487Z,3.80
2024-01-07T09:17:48.546Z,3.35
2024-01-07T09:20:15.157Z,4.00
2024-01-07T09:22:42.897Z,3.92
2024-01-07T09:25:09.883Z,3.95
2024-01-07T09:27:36.702Z,4.03
2024-01-07T09:30:03.729Z,3.50
2024-01-07T09:32:30.259Z,3.70
2024-01-07T09:34:56.934Z,3.92
2024-01-07T09:37:23.839Z,3.42
2024-01-07T09:39:50.727Z,4.15
2024-01-07T09:42:19.786Z,4.00
2024-01-07T09:44:46.703Z,3.30
2024-01-07T09:47:16.788Z,3.63
2024-01-07T09:49:44.737Z,3.50
2024-01-07T09:52:13.354Z,3.30
2024-01-07T09:54:41.281Z,3.05
2024-01-07T09:57:09.113Z,3.10
2024-01-07T09:59:37.837Z,2.30
2024-01-07T10:02:05.080Z,3.10
2024-01-07T10:04:32.405Z,2.83
2024-01-07T10:06:59.589Z,2.67
2024-01-07T10:09:34.116Z,2.10
2024-01-07T10:12:01.445Z,2.67
2024-01-07T10:14:29.560Z,2.03
2024-01-07T10:16:57.365Z,2.25
2024-01-07T10:19:24.892Z,2.17
2024-01-07T10:22:02.523Z,2.13
2024-01-07T10:24:38.465Z,2.00
2024-01-07T10:27:07.847Z,2.00
2024-01-07T10:29:35.039Z,1.90
2024-01-07T10:32:06.485Z,1.45
2024-01-07T10:34:34.970Z,1.87
2024-01-07T10:37:03.682Z,1.60
2024-01-07T10:39:31.495Z,1.92
2024-01-07T10:42:01.510Z,1.45
2024-01-07T10:44:31.526Z,1.60
2024-01-07T10:46:58.901Z,1.40
2024-01-07T10:49:27.384Z,1.67
2024-01-07T10:52:05.940Z,1.52
2024-01-07T10:54:34.457Z,1.17
2024-01-07T10:57:13.936Z,1.77
2024-01-07T10:59:41.736Z,1.60
2024-01-07T11:02:10.306Z,1.42
2024-01-07T11:04:43.149Z,1.35
2024-01-07T11:07:18.597Z,1.00
2024-01-07T11:10:01.451Z,1.50
2024-01-07T11:12:28.281Z,1.37
2024-01-07T11:14:55.245Z,1.50
2024-01-07T11:17:37.170Z,1.35
2024-01-07T11:20:34.246Z,1.10
2024-01-07T11:23:34.179Z,1.48
2024-01-07T11:26:01.827Z,0.90
2024-01-07T11:28:59.453Z,1.00
2024-01-07T11:31:40.987Z,1.10
2024-01-07T11:34:08.234Z,1.13
2024-01-07T11:36:38.861Z,1.10
2024-01-07T11:39:09.689Z,0.87
2024-01-07T11:41:36.895Z,0.90
2024-01-07T11:44:06.603Z,0.80
2024-01-07T11:46:34.150Z,1.05
2024-01-07T11:49:01.869Z,0.63
2024-01-07T11:51:33.509Z,0.90
2024-01-07T11:54:01.557Z,0.88
2024-01-07T11:56:29.261Z,0.80
2024-01-07T11:58:57.479Z,0.77
2024-01-07T12:01:24.522Z,0.63
2024-01-07T12:03:51.691Z,0.60
2024-01-07T12:06:20.979Z,0.70
2024-01-07T12:08:47.604Z,0.90
2024-01-07T12:11:15.372Z,0.68
2024-01-07T12:13:43.281Z,0.70
2024-01-07T12:16:10.518Z,0.70
2024-01-07T12:18:41.160Z,0.50
2024-01-07T12:21:07.793Z,0.70
2024-01-07T12:23:39.523Z,0.65
2024-01-07T12:26:12.194Z,0.52
2024-01-07T12:28:40.107Z,0.60
2024-01-07T12:31:07.354Z,0.75
2024-01-07T12:33:35.376Z,0.65
2024-01-07T12:36:02.933Z,0.63
2024-01-07T12:38:29.672Z,0.43
2024-01-07T12:40:56.732Z,0.50
2024-01-07T12:43:23.828Z,0.60
2024-01-07T12:45:50.785Z,0.40
2024-01-07T12:48:17.411Z,0.50
2024-01-07T12:50:44.305Z,0.50
2024-01-07T12:53:10.935Z,0.67
2024-01-07T12:55:37.525Z,0.80
2024-01-07T12:58:04.211Z,0.50
2024-01-07T13:00:30.787Z,0.40
2024-01-07T13:03:00.650Z,0.47
2024-01-07T13:05:28.757Z,0.40
2024-01-07T13:07:55.884Z,0.40
2024-01-07T13:10:22.871Z,0.35
2024-01-07T13:12:53.058Z,0.30
2024-01-07T13:15:21.889Z,0.68
2024-01-07T13:17:48.444Z,0.30
2024-01-07T13:20:15.197Z,0.40
2024-01-07T13:22:42.149Z,0.50
2024-01-07T13:25:09.167Z,0.30
2024-01-07T13:27:37.617Z,0.30
2024-01-07T13:30:05.842Z,0.30
2024-01-07T13:32:37.492Z,0.35
2024-01-07T13:35:06.050Z,0.40
2024-01-07T13:37:32.581Z,0.40
2024-01-07T13:39:59.131Z,0.40
2024-01-07T13:42:25.822Z,0.40
2024-01-07T13:44:52.402Z,0.50
2024-01-07T13:47:18.844Z,0.60
2024-01-07T13:49:48.373Z,0.30
2024-01-07T13:52:16.180Z,0.40
2024-01-07T13:54:43.175Z,0.30
2024-01-07T13:57:10.190Z,0.30
2024-01-07T13:59:36.767Z,0.38
2024-01-07T14:02:04.319Z,0.40
2024-01-07T14:04:31.171Z,0.25
2024-01-07T14:06:58.218Z,0.27
2024-01-07T14:09:25.690Z,0.50
2024-01-07T14:11:53.238Z,0.32
2024-01-07T14:14:22.587Z,0.40
2024-01-07T14:16:49.060Z,0.30
2024-01-07T14:19:17.405Z,0.30
2024-01-07T14:21:44.244Z,0.22
2024-01-07T14:24:10.864Z,0.40
2024-01-07T14:26:37.342Z,0.45
2024-01-07T14:29:13.764Z,0.60
2024-01-07T14:31:44.072Z,0.37
2024-01-07T14:34:10.748Z,0.30
2024-01-07T14:36:42.062Z,0.32
2024-01-07T14:39:09.838Z,0.38
2024-01-07T14:41:36.300Z,0.28
2024-01-07T14:44:08.346Z,0.47
2024-01-07T14:46:37.259Z,0.40
2024-01-07T14:49:04.987Z,0.52
2024-01-07T14:51:32.682Z,0.40
2024-01-07T14:53:59.700Z,0.35
2024-01-07T14:56:26.328Z,0.40
2024-01-07T14:58:53.710Z,0.50
2024-01-07T15:01:20.361Z,0.57
2024-01-07T15:03:47.070Z,0.60
2024-01-07T15:06:15.736Z,0.55
2024-01-07T15:08:44.250Z,0.60
2024-01-07T15:11:11.077Z,0.50
2024-01-07T15:13:39.362Z,0.40
2024-01-07T15:16:06.429Z,0.30
2024-01-07T15:18:35.535Z,0.50
2024-01-07T15:21:04.587Z,0.40
2024-01-07T15:23:31.240Z,0.30
2024-01-07T15:25:57.733Z,0.40
2024-01-07T15:28:24.274Z,0.50
2024-01-07T15:30:50.892Z,0.60
2024-01-07T15:33:17.524Z,0.50
2024-01-07T15:35:44.189Z,0.40
2024-01-07T15:38:10.755Z,0.50
2024-01-07T15:40:37.166Z,0.50
2024-01-07T15:43:03.908Z,0.47
2024-01-07T15:45:30.482Z,0.93
2024-01-07T15:47:57.423Z,0.45
2024-01-07T15:50:24.057Z,0.47
2024-01-07T15:52:50.576Z,0.63
2024-01-07T15:55:19.332Z,0.60
2024-01-07T15:57:46.255Z,0.40
2024-01-07T16:00:13.872Z,0.50
2024-01-07T16:02:40.433Z,0.55
2024-01-07T16:05:07.587Z,0.43
2024-01-07T16:07:34.256Z,0.80
2024-01-07T16:10:00.778Z,0.87
2024-01-07T16:12:28.716Z,0.60
2024-01-07T16:14:55.168Z,0.70
2024-01-07T16:17:21.656Z,0.50
2024-01-07T16:19:48.266Z,0.80
2024-01-07T16:22:14.803Z,0.90
2024-01-07T16:24:42.735Z,0.70
2024-01-07T16:27:13.812Z,0.85
2024-01-07T16:29:45.227Z,0.85
2024-01-07T16:32:15.758Z,0.73
2024-01-07T16:34:42.745Z,0.83
2024-01-07T16:37:09.547Z,0.70
2024-01-07T16:39:36.106Z,0.60
2024-01-07T16:42:03.467Z,0.60
2024-01-07T16:44:29.971Z,0.75
2024-01-07T16:46:56.456Z,0.83
2024-01-07T16:51:52.531Z,1.15
2024-01-07T16:54:19.138Z,0.93
2024-01-07T16:56:45.879Z,1.20
2024-01-07T16:59:12.426Z,0.67
2024-01-07T17:01:38.901Z,1.02
2024-01-07T17:04:05.390Z,1.33
2024-01-07T17:06:33.204Z,1.20
2024-01-07T17:08:59.696Z,1.20
2024-01-07T17:11:26.193Z,0.90
2024-01-07T17:13:52.803Z,1.38
2024-01-07T17:16:21.298Z,1.42
2024-01-07T17:18:47.830Z,1.33
2024-01-07T17:21:15.289Z,1.55
2024-01-07T17:23:41.681Z,1.57
2024-01-07T17:26:09.661Z,1.52
2024-01-07T17:28:36.277Z,1.92
2024-01-07T17:31:02.818Z,1.80
2024-01-07T17:33:29.356Z,1.77
2024-01-07T17:35:55.858Z,1.87
2024-01-07T17:38:22.376Z,1.88
2024-01-07T17:40:49.544Z,2.20
2024-01-07T17:43:16.059Z,1.98
2024-01-07T17:45:42.817Z,2.13
2024-01-07T17:48:09.466Z,2.37
2024-01-07T17:50:36.146Z,8.38
2024-01-07T17:53:07.234Z,6.95
2024-01-07T17:55:33.835Z,3.60
2024-01-07T17:58:00.256Z,2.35
2024-01-07T18:00:26.751Z,1.97
2024-01-07T18:02:53.303Z,1.98
2024-01-07T18:05:20.028Z,1.98
2024-01-07T18:07:46.538Z,2.00
2024-01-07T18:10:13.029Z,1.92
2024-01-07T18:12:40.131Z,2.10
2024-01-07T18:15:07.118Z,2.40
2024-01-07T18:17:34.414Z,2.08
2024-01-07T18:20:01.477Z,1.67
2024-01-07T18:22:28.267Z,2.35
2024-01-07T18:24:54.917Z,2.17
2024-01-07T18:27:21.475Z,2.33
2024-01-07T18:29:47.940Z,1.83
2024-01-07T18:32:14.606Z,1.80
2024-01-07T18:34:41.960Z,2.13
2024-01-07T18:37:08.732Z,2.13
2024-01-07T18:39:37.392Z,2.10
2024-01-07T18:42:04.405Z,2.22
2024-01-07T18:44:31.229Z,2.28
2024-01-07T18:46:58.424Z,1.85
2024-01-07T18:49:25.045Z,2.27
2024-01-07T18:51:51.608Z,2.00
2024-01-07T18:54:18.099Z,2.10
2024-01-07T18:56:44.593Z,1.80
2024-01-07T18:59:11.122Z,2.10
2024-01-07T19:01:38.782Z,2.27
2024-01-07T19:04:06.062Z,2.03
2024-01-07T19:06:32.710Z,1.92
2024-01-07T19:09:00.366Z,2.28
2024-01-07T19:11:27.127Z,2.33
2024-01-07T19:13:53.721Z,2.20
2024-01-07T19:16:20.236Z,2.38
2024-01-07T19:18:46.759Z,1.60
2024-01-07T19:21:19.356Z,2.40
2024-01-07T19:23:45.891Z,2.72
2024-01-07T19:26:12.857Z,1.90
2024-01-07T19:28:39.645Z,2.20
2024-01-07T19:31:10.749Z,2.25
2024-01-07T19:33:42.574Z,2.47
2024-01-07T19:36:09.574Z,2.45
2024-01-07T19:38:36.376Z,2.20
2024-01-07T19:41:03.943Z,1.85
2024-01-07T19:43:32.172Z,1.67
2024-01-07T19:46:01.636Z,1.80
2024-01-07T19:48:29.087Z,2.17
2024-01-07T19:50:56.197Z,1.93
2024-01-07T19:53:30.125Z,1.80
2024-01-07T19:55:59.779Z,1.92
2024-01-07T19:58:26.688Z,2.08
2024-01-07T20:00:53.313Z,1.88
2024-01-07T20:03:19.989Z,2.20
2024-01-07T20:05:47.007Z,1.80
2024-01-07T20:08:13.875Z,1.67
2024-01-07T20:10:40.484Z,1.63
2024-01-07T20:13:07.085Z,1.80
2024-01-07T20:15:36.662Z,1.43
2024-01-07T20:18:03.575Z,1.77
2024-01-07T20:20:30.288Z,1.60
2024-01-07T20:22:56.923Z,1.60
2024-01-07T20:25:24.766Z,1.38
2024-01-07T20:27:51.314Z,1.10
2024-01-07T20:30:17.976Z,1.20
2024-01-07T20:32:44.752Z,1.13
2024-01-07T20:35:11.603Z,1.27
2024-01-07T20:37:42.151Z,1.70
2024-01-07T20:40:11.702Z,1.37
2024-01-07T20:42:41.733Z,2.03
2024-01-07T20:45:10.951Z,0.95
2024-01-07T20:47:37.741Z,1.30
2024-01-07T20:50:05.114Z,1.25
2024-01-07T20:52:31.546Z,0.77
2024-01-07T20:54:58.037Z,1.40
2024-01-07T20:57:25.469Z,1.20
2024-01-07T20:59:51.997Z,1.10
2024-01-07T21:02:18.728Z,1.20
2024-01-07T21:04:48.332Z,1.30
2024-01-07T21:07:14.878Z,1.60
2024-01-07T21:09:41.497Z,1.42
2024-01-07T21:12:09.024Z,1.42
2024-01-07T21:14:35.529Z,1.30
2024-01-07T21:17:02.068Z,1.23
2024-01-07T21:19:28.500Z,1.23
2024-01-07T21:21:55.872Z,1.58
2024-01-07T21:24:23.315Z,1.60
2024-01-07T21:26:50.010Z,1.48
2024-01-07T21:29:16.571Z,1.77
2024-01-07T21:31:43.282Z,1.55
2024-01-07T21:34:09.851Z,1.40
2024-01-07T21:36:45.389Z,1.33
2024-01-07T21:39:11.933Z,1.40
2024-01-07T21:41:45.525Z,1.30
2024-01-07T21:44:12.625Z,1.65
2024-01-07T21:46:49.517Z,1.55
2024-01-07T21:49:16.097Z,1.17
2024-01-07T21:51:43.169Z,1.42
2024-01-07T21:54:09.824Z,1.20
2024-01-07T21:56:36.342Z,1.45
2024-01-07T21:59:02.977Z,1.00
2024-01-07T22:01:29.597Z,1.15
2024-01-07T22:03:56.060Z,1.10
2024-01-07T22:06:22.702Z,0.60
2024-01-07T22:08:49.331Z,1.27
2024-01-07T22:11:16.335Z,1.15
2024-01-07T22:13:43.926Z,0.98
2024-01-07T22:16:13.458Z,0.80
2024-01-07T22:18:42.934Z,0.80
2024-01-07T22:21:19.270Z,0.68
2024-01-07T22:23:46.523Z,1.10
2024-01-07T22:26:15.271Z,0.98
2024-01-07T22:28:43.808Z,0.80
2024-01-07T22:31:10.886Z,1.33
2024-01-07T22:33:37.720Z,1.02
2024-01-07T22:36:04.389Z,1.00
2024-01-07T22:38:30.917Z,1.05
2024-01-07T22:40:57.571Z,0.77
2024-01-07T22:43:24.097Z,0.80
2024-01-07T22:45:50.996Z,0.70
2024-01-07T22:48:17.981Z,0.90
2024-01-07T22:50:45.025Z,0.70
2024-01-07T22:53:11.597Z,0.50
2024-01-07T22:55:38.989Z,0.63
2024-01-07T22:58:06.511Z,0.77
2024-01-07T23:00:35.351Z,0.70
2024-01-07T23:03:02.569Z,0.60
2024-01-07T23:05:29.270Z,0.98
2024-01-07T23:07:56.073Z,0.90
2024-01-07T23:10:22.536Z,0.90
2024-01-07T23:12:49.811Z,0.90
2024-01-07T23:15:16.496Z,0.70
2024-01-07T23:17:43.277Z,0.77
2024-01-07T23:20:10.873Z,1.00
2024-01-07T23:22:38.325Z,1.02
2024-01-07T23:25:06.547Z,1.15
2024-01-07T23:27:33.220Z,1.20
2024-01-07T23:29:59.937Z,0.90
2024-01-07T23:32:26.537Z,1.00
2024-01-07T23:34:53.487Z,1.00
2024-01-07T23:37:20.091Z,1.02
2024-01-07T23:39:46.562Z,1.45
2024-01-07T23:42:13.041Z,1.27
2024-01-07T23:44:39.610Z,1.13
2024-01-07T23:47:06.197Z,1.13
2024-01-07T23:49:32.804Z,1.50
2024-01-07T23:51:59.343Z,1.77
2024-01-07T23:54:26.036Z,1.17
2024-01-07T23:56:52.553Z,1.20
2024-01-07T23:59:19.057Z,1.20
